createdAt,value
2017-08-11T00:01:48.106Z,94.80
2017-08-11T00:04:15.676Z,94.80
2017-08-11T00:06:43.278Z,94.80
2017-08-11T00:09:10.973Z,94.50
2017-08-11T00:11:38.586Z,94.80
2017-08-11T00:14:06.272Z,94.50
2017-08-11T00:16:34.091Z,94.60
2017-08-11T00:19:02.032Z,94.90
2017-08-11T00:21:29.627Z,95.00
2017-08-11T00:23:57.410Z,94.90
2017-08-11T00:26:24.996Z,95.00
2017-08-11T00:28:52.578Z,94.90
2017-08-11T00:31:20.286Z,95.00
2017-08-11T00:33:48.025Z,95.10
2017-08-11T00:36:15.717Z,95.20
2017-08-11T00:38:43.330Z,95.10
2017-08-11T00:41:10.916Z,94.90
2017-08-11T00:43:38.488Z,95.00
2017-08-11T00:46:06.249Z,95.30
2017-08-11T00:48:33.948Z,94.90
2017-08-11T00:51:01.582Z,95.00
2017-08-11T00:53:29.199Z,94.90
2017-08-11T00:55:56.784Z,94.90
2017-08-11T00:58:24.432Z,94.80
2017-08-11T01:00:52.056Z,95.10
2017-08-11T01:03:19.941Z,94.90
2017-08-11T01:05:48.476Z,94.50
2017-08-11T01:08:16.344Z,94.50
2017-08-11T01:10:43.951Z,94.90
2017-08-11T01:13:12.314Z,94.80
2017-08-11T01:15:39.992Z,94.50
2017-08-11T01:18:08.385Z,94.40
2017-08-11T01:20:36.744Z,94.80
2017-08-11T01:23:04.466Z,94.80
2017-08-11T01:25:32.108Z,94.70
2017-08-11T01:27:59.851Z,94.80
2017-08-11T01:30:27.491Z,94.90
2017-08-11T01:32:55.103Z,95.00
2017-08-11T01:35:22.746Z,94.90
2017-08-11T01:37:50.388Z,95.00
2017-08-11T01:40:18.754Z,94.90
2017-08-11T01:42:46.386Z,94.80
2017-08-11T01:45:14.420Z,94.80
2017-08-11T01:47:42.062Z,95.00
2017-08-11T01:50:10.429Z,95.00
2017-08-11T01:52:38.193Z,95.00
2017-08-11T01:55:05.807Z,94.90
2017-08-11T01:57:33.431Z,95.10
2017-08-11T02:00:01.871Z,95.40
2017-08-11T02:02:29.501Z,95.40
2017-08-11T02:04:57.108Z,95.40
2017-08-11T02:07:24.744Z,95.40
2017-08-11T02:09:52.400Z,95.20
2017-08-11T02:12:20.018Z,95.20
2017-08-11T02:14:47.647Z,95.40
2017-08-11T02:17:15.311Z,95.20
2017-08-11T02:19:42.961Z,95.30
2017-08-11T02:22:10.923Z,95.50
2017-08-11T02:24:38.539Z,95.30
2017-08-11T02:27:06.127Z,95.50
2017-08-11T02:29:33.792Z,95.50
2017-08-11T02:32:01.388Z,95.50
2017-08-11T02:34:29.042Z,95.60
2017-08-11T02:36:56.679Z,95.50
2017-08-11T02:39:24.279Z,95.60
2017-08-11T02:41:51.943Z,95.60
2017-08-11T02:44:19.766Z,95.40
2017-08-11T02:46:47.383Z,95.50
2017-08-11T02:49:15.084Z,95.50
2017-08-11T02:51:42.730Z,95.60
2017-08-11T02:54:10.310Z,95.50
2017-08-11T02:56:37.974Z,95.30
2017-08-11T02:59:05.637Z,95.50
2017-08-11T03:01:33.245Z,95.50
2017-08-11T03:04:01.615Z,95.40
2017-08-11T03:06:29.443Z,95.40
2017-08-11T03:08:57.069Z,95.50
2017-08-11T03:11:24.666Z,95.50
2017-08-11T03:13:52.811Z,95.50
2017-08-11T03:16:20.525Z,95.40
2017-08-11T03:18:48.100Z,95.60
2017-08-11T03:21:15.752Z,95.60
2017-08-11T03:23:43.539Z,96.00
2017-08-11T03:26:11.124Z,95.80
2017-08-11T03:28:38.893Z,95.90
2017-08-11T03:31:06.543Z,95.80
2017-08-11T03:33:34.134Z,95.60
2017-08-11T03:36:01.759Z,95.70
2017-08-11T03:38:29.358Z,95.70
2017-08-11T03:40:57.019Z,95.70
2017-08-11T03:43:24.662Z,95.70
2017-08-11T03:45:52.274Z,95.60
2017-08-11T03:48:19.932Z,95.60
2017-08-11T03:50:47.555Z,95.50
2017-08-11T03:53:15.224Z,95.70
2017-08-11T03:55:42.996Z,95.60
2017-08-11T03:58:10.686Z,95.70
2017-08-11T04:00:38.313Z,95.70
2017-08-11T04:03:05.894Z,95.90
2017-08-11T04:05:33.656Z,95.80
2017-08-11T04:08:01.236Z,95.60
2017-08-11T04:10:29.680Z,95.70
2017-08-11T04:12:57.747Z,95.70
2017-08-11T04:15:25.347Z,95.80
2017-08-11T04:17:52.976Z,95.80
2017-08-11T04:20:20.987Z,95.80
2017-08-11T04:22:49.412Z,95.70
2017-08-11T04:25:17.011Z,95.80
2017-08-11T04:27:44.664Z,95.80
2017-08-11T04:30:12.310Z,95.80
2017-08-11T04:32:39.977Z,95.90
2017-08-11T04:35:07.593Z,95.70
2017-08-11T04:37:35.183Z,95.80
2017-08-11T04:40:02.834Z,95.90
2017-08-11T04:42:30.512Z,95.70
2017-08-11T04:44:58.114Z,95.70
2017-08-11T04:47:25.762Z,95.50
2017-08-11T04:49:53.414Z,95.50
2017-08-11T04:52:20.989Z,95.70
2017-08-11T04:54:48.576Z,95.60
2017-08-11T04:57:16.632Z,95.80
2017-08-11T04:59:44.265Z,95.60
2017-08-11T05:02:15.541Z,95.60
2017-08-11T05:04:43.163Z,95.50
2017-08-11T05:07:10.796Z,95.60
2017-08-11T05:09:38.646Z,95.50
2017-08-11T05:12:06.221Z,95.50
2017-08-11T05:14:33.807Z,95.60
2017-08-11T05:17:01.509Z,95.60
2017-08-11T05:19:29.090Z,95.50
2017-08-11T05:21:56.732Z,95.40
2017-08-11T05:24:25.237Z,95.10
2017-08-11T05:26:53.617Z,95.20
2017-08-11T05:29:21.227Z,95.20
2017-08-11T05:31:48.862Z,95.30
2017-08-11T05:34:16.540Z,95.30
2017-08-11T05:36:44.118Z,94.90
2017-08-11T05:39:11.743Z,94.40
2017-08-11T05:41:39.447Z,94.50
2017-08-11T05:44:07.086Z,94.20
2017-08-11T05:46:34.710Z,94.60
2017-08-11T05:49:02.706Z,94.80
2017-08-11T05:51:30.335Z,94.60
2017-08-11T05:53:58.006Z,94.50
2017-08-11T05:56:25.665Z,94.60
2017-08-11T05:58:53.302Z,94.60
2017-08-11T06:01:20.939Z,94.60
2017-08-11T06:03:48.547Z,94.70
2017-08-11T06:06:16.187Z,94.00
2017-08-11T06:08:43.797Z,93.80
2017-08-11T06:11:11.393Z,93.40
2017-08-11T06:13:39.070Z,93.30
2017-08-11T06:16:06.727Z,93.60
2017-08-11T06:18:34.315Z,93.30
2017-08-11T06:21:02.323Z,93.10
2017-08-11T06:23:30.001Z,92.70
2017-08-11T06:25:57.669Z,93.60
2017-08-11T06:28:25.257Z,93.10
2017-08-11T06:30:54.093Z,93.40
2017-08-11T06:33:22.617Z,93.30
2017-08-11T06:35:50.637Z,93.60
2017-08-11T06:38:18.888Z,93.30
2017-08-11T06:40:46.531Z,94.10
2017-08-11T06:43:14.415Z,93.60
2017-08-11T06:45:44.729Z,93.90
2017-08-11T06:48:12.372Z,93.90
2017-08-11T06:50:40.356Z,94.10
2017-08-11T06:53:08.008Z,93.90
2017-08-11T06:55:35.694Z,94.20
2017-08-11T06:58:03.265Z,94.10
2017-08-11T07:00:31.004Z,94.20
2017-08-11T07:02:58.697Z,93.70
2017-08-11T07:05:26.277Z,94.10
2017-08-11T07:07:53.915Z,93.70
2017-08-11T07:10:21.910Z,93.30
2017-08-11T07:12:49.527Z,93.70
2017-08-11T07:15:17.910Z,92.40
2017-08-11T07:20:19.504Z,91.70
2017-08-11T07:22:47.115Z,92.40
2017-08-11T07:25:14.719Z,92.10
2017-08-11T07:27:42.457Z,92.70
2017-08-11T07:30:10.806Z,92.80
2017-08-11T07:32:38.395Z,92.70
2017-08-11T07:35:06.940Z,91.50
2017-08-11T07:37:34.601Z,91.50
2017-08-11T07:40:03.137Z,91.90
2017-08-11T07:42:30.775Z,91.90
2017-08-11T07:44:58.436Z,91.20
2017-08-11T07:47:26.103Z,91.60
2017-08-11T07:49:54.519Z,91.00
2017-08-11T07:52:22.119Z,91.00
2017-08-11T07:54:49.781Z,90.50
2017-08-11T07:57:18.335Z,89.70
2017-08-11T07:59:45.934Z,89.80
2017-08-11T08:02:13.531Z,90.20
2017-08-11T08:04:41.242Z,88.90
2017-08-11T08:07:08.825Z,90.10
2017-08-11T08:09:37.177Z,90.10
2017-08-11T08:12:04.807Z,90.10
2017-08-11T08:14:32.530Z,90.40
2017-08-11T08:17:00.894Z,89.30
2017-08-11T08:19:28.588Z,89.30
2017-08-11T08:21:56.178Z,89.00
2017-08-11T08:24:23.752Z,89.60
2017-08-11T08:26:51.357Z,86.70
2017-08-11T08:29:19.755Z,86.70
2017-08-11T08:31:47.361Z,86.80
2017-08-11T08:34:14.974Z,87.40
2017-08-11T08:36:42.835Z,85.20
2017-08-11T08:39:10.494Z,86.90
2017-08-11T08:41:38.874Z,84.50
2017-08-11T08:44:06.529Z,84.20
2017-08-11T08:46:34.913Z,82.20
2017-08-11T08:49:02.637Z,82.10
2017-08-11T08:51:30.298Z,84.00
2017-08-11T08:53:57.870Z,81.40
2017-08-11T08:56:25.502Z,76.40
2017-08-11T08:58:53.089Z,76.00
2017-08-11T09:01:20.679Z,78.20
2017-08-11T09:03:49.102Z,74.60
2017-08-11T09:06:16.688Z,74.60
2017-08-11T09:08:44.268Z,76.70
2017-08-11T09:11:12.644Z,75.00
2017-08-11T09:13:41.051Z,75.10
2017-08-11T09:16:08.620Z,75.20
2017-08-11T09:18:36.260Z,73.50
2017-08-11T09:21:04.619Z,68.00
2017-08-11T09:23:33.041Z,70.00
2017-08-11T09:26:12.526Z,69.40
2017-08-11T09:28:51.959Z,65.20
2017-08-11T09:31:31.626Z,69.30
2017-08-11T09:34:11.959Z,71.10
2017-08-11T09:36:40.890Z,70.90
2017-08-11T09:39:08.686Z,71.40
2017-08-11T09:41:36.257Z,70.10
2017-08-11T09:44:03.876Z,71.10
2017-08-11T09:46:31.784Z,74.70
2017-08-11T09:48:59.544Z,73.20
2017-08-11T09:51:27.171Z,75.70
2017-08-11T09:53:54.853Z,77.80
2017-08-11T09:56:22.485Z,79.20
2017-08-11T09:58:51.096Z,84.00
2017-08-11T10:01:18.681Z,83.80
2017-08-11T10:03:46.472Z,82.40
2017-08-11T10:06:14.211Z,83.60
2017-08-11T10:08:41.808Z,79.70
2017-08-11T10:11:10.177Z,76.00
2017-08-11T10:13:37.894Z,75.90
2017-08-11T10:16:05.481Z,72.70
2017-08-11T10:18:33.045Z,71.30
2017-08-11T10:21:00.746Z,71.40
2017-08-11T10:23:29.152Z,69.90
2017-08-11T10:25:56.744Z,70.00
2017-08-11T10:28:24.358Z,74.50
2017-08-11T10:30:51.994Z,75.90
2017-08-11T10:33:20.347Z,80.80
2017-08-11T10:35:47.960Z,80.90
2017-08-11T10:38:15.598Z,81.80
2017-08-11T10:40:43.996Z,81.20
2017-08-11T10:43:11.616Z,81.00
2017-08-11T10:45:39.206Z,78.90
2017-08-11T10:48:07.631Z,78.20
2017-08-11T10:50:35.243Z,77.50
2017-08-11T10:53:03.582Z,77.30
2017-08-11T10:55:31.220Z,77.40
2017-08-11T10:57:58.921Z,77.80
2017-08-11T11:00:26.511Z,78.30
2017-08-11T11:02:54.225Z,78.10
2017-08-11T11:05:21.851Z,78.80
2017-08-11T11:07:49.448Z,77.50
2017-08-11T11:10:17.020Z,79.00
2017-08-11T11:12:44.737Z,77.50
2017-08-11T11:15:12.903Z,75.70
2017-08-11T11:17:41.707Z,76.80
2017-08-11T11:20:09.954Z,74.60
2017-08-11T11:22:37.803Z,72.10
2017-08-11T11:25:05.760Z,70.60
2017-08-11T11:27:33.393Z,71.40
2017-08-11T11:30:00.973Z,69.40
2017-08-11T11:32:28.621Z,69.50
2017-08-11T11:34:56.380Z,65.20
2017-08-11T11:37:24.026Z,64.90
2017-08-11T11:39:51.655Z,66.10
2017-08-11T11:42:20.147Z,65.00
2017-08-11T11:44:47.731Z,65.00
2017-08-11T11:47:15.313Z,69.60
2017-08-11T11:49:43.086Z,64.70
2017-08-11T11:52:10.761Z,68.30
2017-08-11T11:54:38.367Z,68.20
2017-08-11T11:57:06.028Z,70.20
2017-08-11T11:59:33.602Z,70.30
2017-08-11T12:02:01.197Z,71.00
2017-08-11T12:04:29.002Z,68.90
2017-08-11T12:06:56.679Z,61.90
2017-08-11T12:09:24.327Z,62.10
2017-08-11T12:11:52.081Z,59.40
2017-08-11T12:14:20.536Z,57.80
2017-08-11T12:16:48.147Z,57.70
2017-08-11T12:19:15.809Z,60.70
2017-08-11T12:21:43.524Z,65.40
2017-08-11T12:24:11.246Z,64.80
2017-08-11T12:26:38.970Z,70.20
2017-08-11T12:29:06.600Z,67.30
2017-08-11T12:31:34.286Z,67.40
2017-08-11T12:34:02.991Z,68.20
2017-08-11T12:36:31.215Z,67.50
2017-08-11T12:38:58.875Z,68.30
2017-08-11T12:41:26.660Z,66.00
2017-08-11T12:43:54.306Z,66.00
2017-08-11T12:46:21.887Z,68.80
2017-08-11T12:48:49.503Z,70.40
2017-08-11T12:51:17.107Z,68.70
2017-08-11T12:53:44.785Z,69.40
2017-08-11T12:56:12.512Z,67.50
2017-08-11T12:58:40.152Z,70.00
2017-08-11T13:01:07.787Z,69.00
2017-08-11T13:03:35.448Z,67.80
2017-08-11T13:06:03.066Z,71.60
2017-08-11T13:08:30.663Z,68.70
2017-08-11T13:10:59.036Z,71.40
2017-08-11T13:13:27.455Z,72.90
2017-08-11T13:15:55.100Z,72.80
2017-08-11T13:18:22.788Z,73.20
2017-08-11T13:20:50.378Z,72.10
2017-08-11T13:23:18.012Z,72.80
2017-08-11T13:25:45.642Z,70.90
2017-08-11T13:28:14.224Z,69.70
2017-08-11T13:30:41.858Z,67.60
2017-08-11T13:33:10.364Z,67.20
2017-08-11T13:35:37.999Z,67.20
2017-08-11T13:38:06.361Z,69.50
2017-08-11T13:40:34.372Z,69.70
2017-08-11T13:43:01.968Z,71.00
2017-08-11T13:45:29.562Z,69.90
2017-08-11T13:47:57.185Z,69.90
2017-08-11T13:50:24.853Z,70.40
2017-08-11T13:52:52.511Z,70.80
2017-08-11T13:55:20.118Z,70.00
2017-08-11T13:57:48.457Z,67.80
2017-08-11T14:00:16.095Z,67.60
2017-08-11T14:02:43.701Z,65.00
2017-08-11T14:05:11.301Z,64.70
2017-08-11T14:07:38.967Z,62.60
2017-08-11T14:10:06.947Z,64.40
2017-08-11T14:12:34.555Z,65.20
2017-08-11T14:15:04.112Z,67.50
2017-08-11T14:17:31.933Z,67.70
2017-08-11T14:19:59.632Z,63.60
2017-08-11T14:22:28.190Z,67.40
2017-08-11T14:24:56.577Z,67.10
2017-08-11T14:27:24.998Z,62.30
2017-08-11T14:29:52.709Z,62.20
2017-08-11T14:32:20.347Z,60.20
2017-08-11T14:34:47.966Z,61.30
2017-08-11T14:37:15.735Z,63.10
2017-08-11T14:39:43.380Z,61.60
2017-08-11T14:42:11.995Z,62.40
2017-08-11T14:44:40.441Z,59.80
2017-08-11T14:47:09.183Z,63.10
2017-08-11T14:49:36.857Z,61.00
2017-08-11T14:52:04.448Z,63.20
2017-08-11T14:54:32.096Z,61.20
2017-08-11T14:57:00.501Z,63.20
2017-08-11T14:59:28.159Z,62.90
2017-08-11T15:01:55.769Z,64.50
2017-08-11T15:04:23.408Z,64.00
2017-08-11T15:06:51.176Z,62.60
2017-08-11T15:09:18.777Z,65.50
2017-08-11T15:11:46.359Z,63.50
2017-08-11T15:14:14.023Z,60.60
2017-08-11T15:16:41.636Z,59.90
2017-08-11T15:19:09.220Z,60.20
2017-08-11T15:21:36.923Z,62.70
2017-08-11T15:24:04.521Z,59.20
2017-08-11T15:26:32.247Z,59.30
2017-08-11T15:28:59.855Z,59.40
2017-08-11T15:31:27.486Z,59.30
2017-08-11T15:33:55.071Z,61.30
2017-08-11T15:36:22.713Z,61.00
2017-08-11T15:38:50.420Z,57.60
2017-08-11T15:41:18.850Z,62.30
2017-08-11T15:43:46.439Z,61.60
2017-08-11T15:46:14.088Z,61.70
2017-08-11T15:48:41.666Z,62.70
2017-08-11T15:51:09.281Z,62.80
2017-08-11T15:53:36.954Z,62.20
2017-08-11T15:56:04.639Z,65.70
2017-08-11T15:58:32.214Z,62.80
2017-08-11T16:00:59.839Z,63.80
2017-08-11T16:03:28.078Z,64.50
2017-08-11T16:05:55.708Z,66.90
2017-08-11T16:08:23.338Z,68.70
2017-08-11T16:10:51.968Z,66.30
2017-08-11T16:13:20.363Z,68.50
2017-08-11T16:15:48.957Z,70.60
2017-08-11T16:18:16.591Z,70.50
2017-08-11T16:20:44.206Z,70.30
2017-08-11T16:23:11.874Z,72.90
2017-08-11T16:25:39.542Z,73.40
2017-08-11T16:28:07.116Z,71.90
2017-08-11T16:30:35.023Z,73.40
2017-08-11T16:33:02.678Z,72.60
2017-08-11T16:35:31.032Z,71.10
2017-08-11T16:37:58.638Z,71.10
2017-08-11T16:40:26.465Z,71.80
2017-08-11T16:42:54.053Z,72.10
2017-08-11T16:45:21.679Z,71.80
2017-08-11T16:47:49.363Z,71.60
2017-08-11T16:50:17.789Z,70.80
2017-08-11T16:52:45.422Z,70.70
2017-08-11T16:55:13.015Z,69.80
2017-08-11T16:57:40.633Z,70.60
2017-08-11T17:00:09.004Z,70.50
2017-08-11T17:02:37.363Z,70.00
2017-08-11T17:05:04.959Z,70.00
2017-08-11T17:07:32.709Z,70.30
2017-08-11T17:10:01.162Z,75.30
2017-08-11T17:12:28.798Z,75.30
2017-08-11T17:14:56.571Z,73.00
2017-08-11T17:17:24.243Z,73.10
2017-08-11T17:19:51.936Z,72.60
2017-08-11T17:22:20.315Z,73.00
2017-08-11T17:24:48.846Z,71.90
2017-08-11T17:27:16.516Z,72.00
2017-08-11T17:29:44.184Z,69.90
2017-08-11T17:32:11.771Z,71.20
2017-08-11T17:34:39.453Z,71.50
2017-08-11T17:37:07.087Z,71.60
2017-08-11T17:39:34.661Z,72.90
2017-08-11T17:42:03.054Z,71.90
2017-08-11T17:44:30.678Z,71.70
2017-08-11T17:46:58.315Z,72.70
2017-08-11T17:49:25.898Z,73.70
2017-08-11T17:51:53.643Z,73.00
2017-08-11T17:54:21.219Z,73.90
2017-08-11T17:56:49.009Z,74.10
2017-08-11T17:59:17.486Z,75.10
2017-08-11T18:01:45.131Z,75.00
2017-08-11T18:04:12.717Z,76.00
2017-08-11T18:06:41.095Z,77.70
2017-08-11T18:09:09.460Z,76.30
2017-08-11T18:11:37.088Z,76.20
2017-08-11T18:14:04.729Z,77.20
2017-08-11T18:16:32.382Z,77.20
2017-08-11T18:19:00.052Z,79.20
2017-08-11T18:21:27.689Z,77.30
2017-08-11T18:23:56.031Z,80.10
2017-08-11T18:26:23.613Z,80.60
2017-08-11T18:28:51.214Z,77.40
2017-08-11T18:31:18.797Z,78.10
2017-08-11T18:33:46.417Z,78.20
2017-08-11T18:36:14.039Z,78.00
2017-08-11T18:38:41.628Z,77.70
2017-08-11T18:41:09.989Z,78.00
2017-08-11T18:43:37.621Z,78.00
2017-08-11T18:46:05.215Z,79.40
2017-08-11T18:48:32.797Z,78.40
2017-08-11T18:51:00.435Z,79.80
2017-08-11T18:53:28.056Z,80.70
2017-08-11T18:55:55.683Z,80.30
2017-08-11T18:58:23.378Z,80.30
2017-08-11T19:00:50.954Z,81.10
2017-08-11T19:03:18.536Z,80.80
2017-08-11T19:05:46.167Z,80.80
2017-08-11T19:08:13.871Z,80.60
2017-08-11T19:10:41.527Z,80.00
2017-08-11T19:13:09.140Z,79.20
2017-08-11T19:15:36.799Z,79.80
2017-08-11T19:18:04.372Z,78.90
2017-08-11T19:20:32.024Z,77.90
2017-08-11T19:22:59.688Z,77.70
2017-08-11T19:25:27.314Z,77.50
2017-08-11T19:27:54.924Z,77.90
2017-08-11T19:30:22.508Z,79.30
2017-08-11T19:32:50.137Z,77.70
2017-08-11T19:35:17.754Z,78.50
2017-08-11T19:37:45.417Z,77.30
2017-08-11T19:40:13.069Z,76.70
2017-08-11T19:42:41.506Z,76.10
2017-08-11T19:45:09.096Z,76.10
2017-08-11T19:47:36.673Z,77.00
2017-08-11T19:50:05.087Z,76.00
2017-08-11T19:52:32.766Z,76.00
2017-08-11T19:55:00.337Z,77.40
2017-08-11T19:57:28.022Z,75.70
2017-08-11T19:59:55.657Z,75.00
2017-08-11T20:02:23.244Z,75.70
2017-08-11T20:04:51.627Z,75.30
2017-08-11T20:07:19.231Z,74.80
2017-08-11T20:09:46.874Z,75.30
2017-08-11T20:12:14.527Z,75.70
2017-08-11T20:14:43.897Z,74.10
2017-08-11T20:17:11.590Z,74.00
2017-08-11T20:19:39.332Z,74.90
2017-08-11T20:22:07.829Z,75.50
2017-08-11T20:24:35.443Z,75.90
2017-08-11T20:27:03.185Z,74.50
2017-08-11T20:29:30.755Z,74.70
2017-08-11T20:31:58.423Z,74.90
2017-08-11T20:34:26.160Z,74.70
2017-08-11T20:36:53.815Z,76.90
2017-08-11T20:39:21.434Z,74.70
2017-08-11T20:41:49.887Z,75.30
2017-08-11T20:44:17.620Z,75.30
2017-08-11T20:46:45.235Z,75.80
2017-08-11T20:49:12.858Z,77.80
2017-08-11T20:51:40.458Z,76.60
2017-08-11T20:54:08.133Z,77.10
2017-08-11T20:56:35.753Z,76.90
2017-08-11T20:59:03.419Z,77.00
2017-08-11T21:01:31.029Z,78.00
2017-08-11T21:03:58.663Z,77.70
2017-08-11T21:06:26.266Z,79.00
2017-08-11T21:08:53.851Z,77.90
2017-08-11T21:11:21.467Z,78.10
2017-08-11T21:13:49.053Z,78.60
2017-08-11T21:16:16.707Z,79.40
2017-08-11T21:18:44.328Z,79.30
2017-08-11T21:21:12.011Z,80.10
2017-08-11T21:23:39.640Z,81.40
2017-08-11T21:26:08.163Z,80.30
2017-08-11T21:28:35.772Z,80.20
2017-08-11T21:31:03.365Z,79.40
2017-08-11T21:33:30.992Z,78.80
2017-08-11T21:35:58.649Z,79.40
2017-08-11T21:38:26.226Z,78.30
2017-08-11T21:40:53.930Z,78.20
2017-08-11T21:43:22.360Z,78.50
2017-08-11T21:45:50.925Z,78.30
2017-08-11T21:48:18.603Z,77.30
2017-08-11T21:50:46.261Z,78.40
2017-08-11T21:53:13.842Z,77.80
2017-08-11T21:55:41.474Z,79.20
2017-08-11T21:58:09.199Z,79.70
2017-08-11T22:00:36.837Z,80.40
2017-08-11T22:03:04.501Z,79.50
2017-08-11T22:05:32.132Z,79.00
2017-08-11T22:07:59.703Z,81.80
2017-08-11T22:10:27.321Z,80.60
2017-08-11T22:12:55.957Z,80.00
2017-08-11T22:15:23.574Z,80.50
2017-08-11T22:17:51.285Z,82.60
2017-08-11T22:20:18.884Z,81.60
2017-08-11T22:22:47.244Z,81.10
2017-08-11T22:25:14.954Z,81.10
2017-08-11T22:27:42.533Z,80.20
2017-08-11T22:30:10.109Z,79.80
2017-08-11T22:32:37.805Z,80.10
2017-08-11T22:35:06.231Z,80.90
2017-08-11T22:37:33.890Z,80.90
2017-08-11T22:40:01.494Z,81.00
2017-08-11T22:42:29.155Z,79.30
2017-08-11T22:44:56.743Z,81.10
2017-08-11T22:47:24.349Z,81.70
2017-08-11T22:49:52.100Z,82.20
2017-08-11T22:52:19.775Z,81.20
2017-08-11T22:54:47.390Z,81.20
2017-08-11T22:57:15.049Z,82.50
2017-08-11T22:59:42.688Z,83.10
2017-08-11T23:02:11.078Z,81.40
2017-08-11T23:04:38.660Z,81.80
2017-08-11T23:07:06.418Z,82.40
2017-08-11T23:09:34.025Z,81.30
2017-08-11T23:12:01.619Z,82.00
2017-08-11T23:14:29.241Z,81.40
2017-08-11T23:16:56.862Z,81.90
2017-08-11T23:19:24.433Z,81.50
2017-08-11T23:21:52.043Z,80.80
2017-08-11T23:24:19.712Z,80.80
2017-08-11T23:26:48.072Z,80.10
2017-08-11T23:29:15.654Z,80.10
2017-08-11T23:31:43.300Z,79.00
2017-08-11T23:34:10.891Z,80.50
2017-08-11T23:36:39.312Z,78.70
2017-08-11T23:39:06.944Z,78.60
2017-08-11T23:41:34.556Z,79.90
2017-08-11T23:44:02.166Z,80.00
2017-08-11T23:46:30.127Z,80.40
2017-08-11T23:48:57.718Z,80.90
2017-08-11T23:51:25.298Z,79.90
2017-08-11T23:53:52.904Z,80.20
2017-08-11T23:56:21.315Z,79.60
2017-08-11T23:58:48.953Z,79.60
